createdAt,value
2023-05-23T00:00:38.254Z,31.90
2023-05-23T00:03:08.980Z,30.73
2023-05-23T00:05:39.859Z,34.13
2023-05-23T00:08:10.810Z,35.07
2023-05-23T00:10:43.997Z,37.50
2023-05-23T00:13:15.344Z,38.67
2023-05-23T00:15:46.887Z,48.43
2023-05-23T00:18:17.866Z,51.13
2023-05-23T00:20:48.936Z,47.87
2023-05-23T00:23:22.739Z,49.07
2023-05-23T00:25:56.180Z,51.80
2023-05-23T00:28:26.838Z,57.27
2023-05-23T00:30:57.451Z,55.43
2023-05-23T00:33:29.977Z,58.77
2023-05-23T00:36:00.847Z,48.20
2023-05-23T00:38:31.590Z,47.80
2023-05-23T00:41:05.867Z,51.70
2023-05-23T00:43:37.031Z,53.27
2023-05-23T00:46:08.763Z,55.17
2023-05-23T00:48:40.001Z,52.10
2023-05-23T00:51:10.990Z,57.63
2023-05-23T00:53:41.871Z,68.20
2023-05-23T00:56:15.471Z,45.63
2023-05-23T00:58:46.107Z,91.90
2023-05-23T01:01:18.052Z,71.90
2023-05-23T01:03:48.904Z,65.37
2023-05-23T01:06:20.482Z,76.23
2023-05-23T01:08:51.117Z,79.53
2023-05-23T01:11:30.872Z,80.50
2023-05-23T01:14:06.305Z,94.93
2023-05-23T01:16:48.908Z,89.43
2023-05-23T01:19:52.112Z,87.57
2023-05-23T01:22:36.200Z,88.57
2023-05-23T01:25:14.842Z,86.67
2023-05-23T01:27:54.255Z,84.33
2023-05-23T01:30:26.356Z,82.07
2023-05-23T01:32:59.561Z,94.80
2023-05-23T01:35:31.256Z,94.20
2023-05-23T01:38:01.976Z,86.17
2023-05-23T01:40:32.943Z,83.77
2023-05-23T01:43:06.475Z,91.67
2023-05-23T01:45:38.114Z,92.13
2023-05-23T01:48:10.108Z,85.40
2023-05-23T01:50:42.147Z,80.10
2023-05-23T01:53:14.987Z,86.33
2023-05-23T01:55:46.598Z,92.43
2023-05-23T01:58:20.614Z,102.80
2023-05-23T02:00:51.330Z,95.17
2023-05-23T02:03:22.308Z,101.77
2023-05-23T02:05:53.674Z,86.40
2023-05-23T02:08:24.287Z,81.40
2023-05-23T02:10:54.947Z,101.03
2023-05-23T02:13:28.316Z,103.87
2023-05-23T02:15:58.911Z,88.70
2023-05-23T02:18:30.074Z,87.07
2023-05-23T02:21:00.680Z,90.03
2023-05-23T02:23:31.414Z,89.10
2023-05-23T02:26:02.122Z,91.90
2023-05-23T02:28:35.279Z,94.27
2023-05-23T02:31:06.306Z,87.83
2023-05-23T02:33:37.006Z,100.67
2023-05-23T02:36:08.319Z,122.77
2023-05-23T02:38:39.013Z,100.17
2023-05-23T02:41:09.637Z,114.43
2023-05-23T02:43:44.248Z,109.23
2023-05-23T02:46:16.461Z,111.27
2023-05-23T02:48:47.457Z,92.83
2023-05-23T02:51:18.021Z,98.87
2023-05-23T02:53:48.605Z,122.53
2023-05-23T02:56:20.430Z,110.53
2023-05-23T02:58:53.608Z,100.93
2023-05-23T03:01:24.454Z,97.97
2023-05-23T03:03:55.096Z,104.13
2023-05-23T03:06:27.741Z,115.13
2023-05-23T03:08:58.348Z,104.03
2023-05-23T03:11:30.003Z,102.00
2023-05-23T03:14:03.173Z,106.03
2023-05-23T03:16:33.796Z,135.37
2023-05-23T03:19:04.882Z,148.53
2023-05-23T03:21:36.373Z,137.80
2023-05-23T03:24:07.827Z,120.90
2023-05-23T03:26:38.351Z,112.47
2023-05-23T03:29:11.522Z,108.03
2023-05-23T03:31:42.135Z,92.43
2023-05-23T03:34:13.189Z,96.80
2023-05-23T03:36:43.874Z,88.63
2023-05-23T03:39:14.523Z,85.33
2023-05-23T03:41:45.088Z,95.23
2023-05-23T03:44:18.400Z,111.60
2023-05-23T03:46:49.093Z,111.70
2023-05-23T03:49:21.159Z,129.57
2023-05-23T03:51:51.758Z,125.43
2023-05-23T03:54:22.368Z,120.73
2023-05-23T03:56:53.022Z,116.17
2023-05-23T03:59:26.236Z,124.80
2023-05-23T04:01:58.992Z,121.20
2023-05-23T04:04:29.724Z,126.90
2023-05-23T04:07:01.801Z,127.53
2023-05-23T04:09:32.818Z,103.97
2023-05-23T04:12:03.978Z,103.33
2023-05-23T04:14:37.867Z,114.33
2023-05-23T04:17:09.314Z,120.90
2023-05-23T04:19:40.650Z,117.00
2023-05-23T04:22:11.301Z,122.37
2023-05-23T04:24:41.911Z,104.23
2023-05-23T04:27:13.891Z,95.47
2023-05-23T04:29:48.369Z,102.30
2023-05-23T04:32:23.243Z,104.70
2023-05-23T04:34:54.113Z,102.27
2023-05-23T04:37:26.529Z,100.07
2023-05-23T04:39:59.470Z,101.97
2023-05-23T04:42:46.391Z,100.77
2023-05-23T04:45:41.835Z,102.50
2023-05-23T04:48:30.167Z,90.67
2023-05-23T04:51:02.418Z,87.27
2023-05-23T04:53:33.879Z,95.23
2023-05-23T04:56:04.812Z,77.23
2023-05-23T04:58:35.811Z,86.77
2023-05-23T05:01:11.958Z,87.87
2023-05-23T05:03:42.712Z,92.53
2023-05-23T05:06:13.360Z,88.80
2023-05-23T05:08:43.983Z,89.27
2023-05-23T05:11:15.323Z,86.70
2023-05-23T05:13:45.985Z,85.30
2023-05-23T05:16:20.130Z,85.80
2023-05-23T05:18:51.685Z,83.30
2023-05-23T05:21:23.577Z,89.53
2023-05-23T05:23:54.655Z,84.90
2023-05-23T05:26:25.572Z,80.40
2023-05-23T05:28:57.122Z,76.37
2023-05-23T05:31:30.524Z,85.57
2023-05-23T05:34:01.292Z,77.63
2023-05-23T05:36:32.626Z,75.80
2023-05-23T05:39:03.436Z,69.33
2023-05-23T05:41:33.988Z,85.20
2023-05-23T05:44:04.525Z,70.50
2023-05-23T05:46:37.905Z,82.37
2023-05-23T05:49:10.196Z,68.33
2023-05-23T05:51:41.102Z,77.10
2023-05-23T05:54:11.975Z,69.37
2023-05-23T05:56:42.640Z,75.47
2023-05-23T05:59:14.370Z,72.10
2023-05-23T06:01:47.914Z,62.30
2023-05-23T06:04:18.793Z,75.87
2023-05-23T06:06:49.719Z,65.93
2023-05-23T06:09:20.258Z,68.30
2023-05-23T06:11:51.157Z,73.37
2023-05-23T06:14:22.458Z,66.77
2023-05-23T06:16:56.906Z,64.27
2023-05-23T06:19:27.598Z,67.00
2023-05-23T06:21:58.889Z,66.13
2023-05-23T06:24:29.575Z,61.43
2023-05-23T06:27:00.123Z,66.40
2023-05-23T06:29:31.416Z,58.77
2023-05-23T06:32:04.691Z,64.37
2023-05-23T06:34:35.554Z,68.30
2023-05-23T06:37:06.112Z,60.93
2023-05-23T06:39:36.659Z,61.33
2023-05-23T06:42:07.618Z,65.13
2023-05-23T06:44:53.560Z,72.00
2023-05-23T06:47:26.940Z,62.40
2023-05-23T06:49:57.546Z,65.00
2023-05-23T06:52:28.856Z,67.60
2023-05-23T06:55:00.449Z,59.27
2023-05-23T06:57:31.192Z,55.30
2023-05-23T07:00:01.809Z,61.50
2023-05-23T07:02:35.135Z,67.13
2023-05-23T07:05:09.609Z,57.80
2023-05-23T07:07:51.013Z,68.03
2023-05-23T07:10:21.923Z,65.67
2023-05-23T07:12:54.160Z,64.20
2023-05-23T07:15:26.180Z,63.67
2023-05-23T07:18:11.918Z,61.97
2023-05-23T07:20:42.690Z,69.17
2023-05-23T07:23:20.164Z,64.70
2023-05-23T07:26:01.785Z,62.60
2023-05-23T07:28:40.609Z,67.67
2023-05-23T07:31:12.228Z,71.03
2023-05-23T07:33:45.493Z,72.23
2023-05-23T07:36:22.575Z,66.67
2023-05-23T07:38:54.436Z,69.67
2023-05-23T07:41:25.226Z,65.73
2023-05-23T07:43:56.098Z,62.77
2023-05-23T07:46:26.763Z,58.33
2023-05-23T07:48:59.911Z,60.80
2023-05-23T07:51:31.067Z,60.90
2023-05-23T07:54:01.651Z,56.50
2023-05-23T07:56:32.601Z,50.17
2023-05-23T07:59:03.129Z,47.60
2023-05-23T08:01:33.980Z,48.93
2023-05-23T08:04:12.703Z,46.70
2023-05-23T08:07:04.190Z,47.20
2023-05-23T08:09:49.807Z,43.90
2023-05-23T08:12:23.098Z,48.63
2023-05-23T08:15:02.251Z,54.67
2023-05-23T08:17:36.893Z,51.17
2023-05-23T08:20:12.372Z,53.20
2023-05-23T08:22:43.190Z,60.60
2023-05-23T08:25:14.285Z,47.40
2023-05-23T08:27:44.840Z,49.43
2023-05-23T08:30:33.905Z,50.00
2023-05-23T08:33:05.082Z,47.43
2023-05-23T08:35:39.197Z,39.27
2023-05-23T08:38:13.828Z,42.00
2023-05-23T08:40:55.477Z,42.60
2023-05-23T08:43:27.669Z,35.63
2023-05-23T08:45:58.741Z,39.90
2023-05-23T08:48:32.573Z,36.43
2023-05-23T08:51:07.088Z,33.00
2023-05-23T08:53:41.352Z,35.13
2023-05-23T08:56:12.717Z,34.30
2023-05-23T08:58:48.753Z,36.03
2023-05-23T09:01:23.254Z,37.27
2023-05-23T09:04:00.494Z,33.13
2023-05-23T09:07:10.778Z,32.30
2023-05-23T09:09:41.893Z,33.60
2023-05-23T09:12:15.556Z,35.50
2023-05-23T09:14:49.339Z,32.90
2023-05-23T09:17:22.700Z,30.47
2023-05-23T09:19:55.554Z,31.10
2023-05-23T09:22:52.467Z,35.70
2023-05-23T09:25:23.322Z,36.53
2023-05-23T09:28:00.236Z,28.13
2023-05-23T09:30:31.786Z,33.93
2023-05-23T09:33:05.896Z,32.87
2023-05-23T09:35:37.726Z,27.10
2023-05-23T09:38:12.892Z,27.03
2023-05-23T09:40:49.344Z,26.57
2023-05-23T09:43:21.396Z,29.40
2023-05-23T09:45:57.706Z,27.13
2023-05-23T09:48:33.914Z,28.30
2023-05-23T09:51:08.744Z,32.30
2023-05-23T09:53:42.298Z,25.43
2023-05-23T09:56:15.588Z,30.37
2023-05-23T09:58:48.072Z,26.87
2023-05-23T10:01:19.830Z,26.80
2023-05-23T10:03:57.250Z,28.23
2023-05-23T10:06:34.822Z,26.83
2023-05-23T10:09:15.534Z,26.43
2023-05-23T10:12:22.208Z,23.60
2023-05-23T10:15:00.144Z,24.33
2023-05-23T10:17:39.495Z,26.80
2023-05-23T10:20:13.987Z,27.33
2023-05-23T10:22:45.993Z,25.50
2023-05-23T10:25:19.627Z,21.77
2023-05-23T10:27:54.273Z,24.20
2023-05-23T10:30:25.255Z,22.03
2023-05-23T10:32:57.086Z,20.60
2023-05-23T10:35:36.200Z,21.23
2023-05-23T10:38:15.937Z,27.73
2023-05-23T10:40:58.118Z,26.70
2023-05-23T10:43:34.041Z,24.30
2023-05-23T10:46:04.639Z,25.10
2023-05-23T10:48:43.786Z,24.67
2023-05-23T10:51:15.616Z,29.17
2023-05-23T10:53:47.939Z,22.77
2023-05-23T10:56:26.758Z,24.67
2023-05-23T10:59:00.310Z,23.57
2023-05-23T11:01:31.309Z,26.37
2023-05-23T11:04:08.159Z,30.47
2023-05-23T11:06:43.017Z,23.97
2023-05-23T11:09:16.888Z,20.27
2023-05-23T11:12:05.036Z,21.13
2023-05-23T11:14:38.568Z,23.10
2023-05-23T11:17:19.833Z,21.87
2023-05-23T11:20:13.484Z,17.67
2023-05-23T11:22:56.041Z,21.97
2023-05-23T11:25:44.763Z,18.87
2023-05-23T11:28:18.059Z,20.30
2023-05-23T11:30:51.261Z,17.80
2023-05-23T11:33:22.381Z,19.60
2023-05-23T11:35:54.167Z,19.07
2023-05-23T11:38:25.040Z,15.77
2023-05-23T11:40:55.624Z,16.07
2023-05-23T11:43:28.921Z,17.80
2023-05-23T11:45:59.484Z,15.53
2023-05-23T11:48:32.604Z,16.30
2023-05-23T11:51:03.232Z,14.27
2023-05-23T11:53:34.161Z,19.93
2023-05-23T11:56:06.316Z,16.70
2023-05-23T11:58:42.841Z,15.20
2023-05-23T12:01:14.773Z,14.80
2023-05-23T12:03:53.490Z,16.90
2023-05-23T12:06:25.182Z,12.67
2023-05-23T12:08:56.315Z,13.60
2023-05-23T12:11:26.979Z,16.90
2023-05-23T12:14:01.261Z,16.20
2023-05-23T12:16:32.933Z,16.60
2023-05-23T12:19:05.035Z,16.70
2023-05-23T12:21:45.935Z,14.80
2023-05-23T12:24:20.467Z,17.23
2023-05-23T12:26:52.654Z,17.27
2023-05-23T12:29:34.740Z,16.77
2023-05-23T12:32:07.318Z,14.83
2023-05-23T12:34:37.864Z,15.83
2023-05-23T12:39:42.738Z,16.37
2023-05-23T12:42:14.021Z,14.40
2023-05-23T12:44:48.859Z,12.43
2023-05-23T12:47:19.698Z,15.20
2023-05-23T12:49:50.305Z,13.37
2023-05-23T12:52:20.808Z,14.67
2023-05-23T12:54:51.538Z,14.90
2023-05-23T12:57:22.884Z,13.00
2023-05-23T12:59:55.986Z,13.80
2023-05-23T13:02:26.753Z,13.63
2023-05-23T13:04:57.399Z,12.70
2023-05-23T13:07:27.955Z,12.27
2023-05-23T13:09:58.577Z,13.87
2023-05-23T13:12:29.866Z,11.70
2023-05-23T13:15:03.167Z,15.57
2023-05-23T13:17:33.732Z,16.80
2023-05-23T13:20:05.378Z,13.10
2023-05-23T13:22:36.048Z,15.60
2023-05-23T13:25:07.545Z,14.37
2023-05-23T13:27:38.206Z,14.33
2023-05-23T13:30:12.790Z,10.77
2023-05-23T13:32:43.365Z,19.40
2023-05-23T13:35:14.061Z,12.73
2023-05-23T13:37:44.645Z,11.83
2023-05-23T13:40:20.679Z,10.97
2023-05-23T13:42:53.476Z,13.20
2023-05-23T13:45:26.817Z,11.17
2023-05-23T13:47:57.406Z,13.33
2023-05-23T13:50:28.371Z,14.40
2023-05-23T13:52:59.022Z,12.20
2023-05-23T13:55:29.719Z,11.60
2023-05-23T13:58:00.303Z,10.73
2023-05-23T14:00:33.489Z,12.40
2023-05-23T14:03:04.157Z,10.20
2023-05-23T14:05:34.786Z,8.63
2023-05-23T14:08:05.349Z,9.17
2023-05-23T14:10:36.166Z,13.10
2023-05-23T14:13:07.049Z,8.27
2023-05-23T14:15:42.690Z,9.90
2023-05-23T14:18:13.443Z,12.90
2023-05-23T14:20:43.994Z,9.60
2023-05-23T14:23:16.670Z,8.67
2023-05-23T14:25:47.173Z,8.63
2023-05-23T14:28:17.844Z,8.50
2023-05-23T14:30:51.219Z,8.87
2023-05-23T14:33:21.828Z,8.53
2023-05-23T14:35:53.096Z,8.83
2023-05-23T14:38:23.632Z,10.43
2023-05-23T14:40:54.801Z,8.63
2023-05-23T14:43:25.318Z,8.90
2023-05-23T14:45:58.589Z,11.00
2023-05-23T14:48:29.145Z,12.07
2023-05-23T14:51:01.801Z,12.30
2023-05-23T14:53:32.297Z,10.00
2023-05-23T14:56:03.593Z,9.20
2023-05-23T14:58:34.183Z,8.77
2023-05-23T15:01:07.635Z,9.93
2023-05-23T15:03:38.532Z,9.30
2023-05-23T15:06:09.572Z,9.40
2023-05-23T15:08:40.431Z,9.00
2023-05-23T15:11:11.205Z,8.70
2023-05-23T15:13:41.742Z,7.80
2023-05-23T15:16:18.216Z,7.40
2023-05-23T15:18:51.466Z,9.10
2023-05-23T15:21:22.105Z,7.63
2023-05-23T15:23:52.662Z,7.30
2023-05-23T15:26:28.389Z,7.07
2023-05-23T15:28:59.299Z,8.67
2023-05-23T15:31:33.492Z,7.27
2023-05-23T15:34:04.616Z,9.23
2023-05-23T15:36:35.241Z,6.50
2023-05-23T15:39:06.355Z,9.20
2023-05-23T15:41:36.931Z,10.40
2023-05-23T15:44:07.803Z,8.43
2023-05-23T15:46:40.943Z,8.20
2023-05-23T15:49:24.508Z,6.87
2023-05-23T15:51:56.860Z,8.07
2023-05-23T15:54:27.393Z,6.57
2023-05-23T15:56:57.972Z,8.47
2023-05-23T15:59:28.577Z,10.23
2023-05-23T16:02:05.463Z,9.50
2023-05-23T16:04:36.231Z,6.43
2023-05-23T16:07:07.093Z,6.43
2023-05-23T16:09:37.623Z,6.63
2023-05-23T16:12:08.920Z,6.90
2023-05-23T16:14:39.502Z,9.43
2023-05-23T16:17:12.713Z,7.27
2023-05-23T16:19:43.432Z,10.93
2023-05-23T16:22:15.883Z,9.67
2023-05-23T16:24:46.514Z,7.30
2023-05-23T16:27:17.204Z,13.70
2023-05-23T16:29:54.271Z,8.73
2023-05-23T16:32:27.427Z,8.33
2023-05-23T16:34:58.285Z,6.07
2023-05-23T16:37:28.824Z,7.90
2023-05-23T16:39:59.366Z,10.43
2023-05-23T16:42:30.066Z,8.27
2023-05-23T16:45:00.714Z,10.40
2023-05-23T16:47:33.920Z,7.63
2023-05-23T16:50:05.129Z,8.70
2023-05-23T16:52:35.710Z,8.40
2023-05-23T16:55:07.188Z,8.40
2023-05-23T16:57:37.705Z,11.77
2023-05-23T17:00:09.334Z,11.37
2023-05-23T17:02:42.669Z,10.47
2023-05-23T17:05:13.357Z,10.33
2023-05-23T17:07:43.938Z,11.20
2023-05-23T17:10:14.972Z,13.63
2023-05-23T17:12:45.481Z,16.43
2023-05-23T17:15:15.999Z,12.60
2023-05-23T17:17:49.775Z,14.27
2023-05-23T17:20:24.144Z,13.33
2023-05-23T17:22:54.945Z,14.77
2023-05-23T17:25:25.678Z,13.83
2023-05-23T17:27:56.928Z,13.07
2023-05-23T17:30:28.486Z,12.63
2023-05-23T17:33:01.657Z,12.70
2023-05-23T17:35:32.577Z,12.13
2023-05-23T17:38:03.146Z,13.93
2023-05-23T17:40:33.850Z,19.90
2023-05-23T17:43:04.393Z,12.07
2023-05-23T17:45:34.961Z,14.27
2023-05-23T17:48:08.214Z,12.30
2023-05-23T17:50:38.752Z,12.20
2023-05-23T17:53:09.656Z,11.93
2023-05-23T17:55:40.207Z,11.20
2023-05-23T17:58:10.851Z,12.43
2023-05-23T18:00:41.683Z,10.47
2023-05-23T18:03:14.920Z,10.27
2023-05-23T18:05:45.671Z,11.30
2023-05-23T18:08:16.594Z,9.60
2023-05-23T18:10:47.913Z,15.13
2023-05-23T18:13:19.183Z,11.30
2023-05-23T18:15:49.808Z,8.43
2023-05-23T18:18:23.024Z,11.07
2023-05-23T18:20:53.698Z,8.13
2023-05-23T18:23:25.005Z,7.67
2023-05-23T18:25:55.503Z,8.27
2023-05-23T18:28:26.120Z,8.03
2023-05-23T18:30:56.683Z,9.37
2023-05-23T18:33:30.344Z,8.47
2023-05-23T18:36:01.421Z,11.43
2023-05-23T18:38:32.029Z,11.13
2023-05-23T18:41:02.661Z,6.20
2023-05-23T18:43:33.218Z,6.50
2023-05-23T18:46:03.859Z,8.30
2023-05-23T18:48:37.076Z,8.53
2023-05-23T18:51:08.628Z,9.93
2023-05-23T18:53:40.813Z,5.87
2023-05-23T18:56:12.879Z,6.63
2023-05-23T18:58:45.333Z,8.37
2023-05-23T19:01:17.272Z,7.83
2023-05-23T19:03:50.475Z,6.40
2023-05-23T19:06:21.264Z,4.53
2023-05-23T19:08:51.822Z,5.43
2023-05-23T19:11:22.750Z,8.37
2023-05-23T19:13:53.309Z,5.23
2023-05-23T19:16:24.214Z,5.53
2023-05-23T19:18:57.539Z,4.47
2023-05-23T19:21:28.492Z,5.63
2023-05-23T19:23:59.323Z,4.03
2023-05-23T19:26:30.123Z,6.00
2023-05-23T19:29:00.798Z,4.63
2023-05-23T19:31:31.860Z,4.77
2023-05-23T19:34:05.087Z,6.43
2023-05-23T19:36:36.689Z,4.60
2023-05-23T19:39:07.485Z,5.20
2023-05-23T19:41:38.160Z,5.00
2023-05-23T19:44:08.711Z,4.43
2023-05-23T19:46:39.280Z,5.80
2023-05-23T19:49:13.810Z,5.00
2023-05-23T19:51:44.392Z,5.87
2023-05-23T19:54:15.802Z,6.53
2023-05-23T19:56:46.378Z,5.50
2023-05-23T19:59:17.230Z,6.57
2023-05-23T20:01:47.834Z,4.90
2023-05-23T20:04:24.193Z,5.90
2023-05-23T20:06:56.161Z,4.23
2023-05-23T20:09:26.715Z,7.00
2023-05-23T20:11:57.282Z,5.20
2023-05-23T20:14:29.353Z,6.07
2023-05-23T20:17:00.075Z,6.60
2023-05-23T20:19:33.373Z,6.50
2023-05-23T20:22:04.199Z,6.43
2023-05-23T20:24:34.771Z,5.70
2023-05-23T20:27:05.314Z,5.60
2023-05-23T20:29:36.056Z,5.37
2023-05-23T20:32:06.946Z,6.87
2023-05-23T20:34:40.154Z,6.37
2023-05-23T20:37:13.856Z,8.70
2023-05-23T20:39:44.701Z,11.00
2023-05-23T20:42:15.356Z,6.60
2023-05-23T20:44:47.080Z,7.73
2023-05-23T20:47:18.457Z,8.57
2023-05-23T20:49:51.853Z,6.50
2023-05-23T20:52:23.081Z,8.17
2023-05-23T20:54:54.661Z,8.23
2023-05-23T20:57:25.294Z,7.80
2023-05-23T20:59:55.855Z,7.80
2023-05-23T21:02:26.943Z,7.10
2023-05-23T21:05:00.325Z,9.90
2023-05-23T21:07:30.921Z,6.60
2023-05-23T21:10:01.493Z,6.37
2023-05-23T21:12:32.144Z,6.40
2023-05-23T21:15:03.295Z,8.43
2023-05-23T21:17:33.953Z,9.57
2023-05-23T21:20:07.705Z,7.27
2023-05-23T21:22:38.289Z,8.43
2023-05-23T21:25:09.524Z,6.30
2023-05-23T21:27:40.225Z,9.10
2023-05-23T21:30:12.192Z,9.40
2023-05-23T21:32:43.669Z,8.27
2023-05-23T21:35:17.009Z,8.80
2023-05-23T21:37:47.546Z,6.77
2023-05-23T21:40:18.201Z,14.63
2023-05-23T21:42:48.770Z,10.50
2023-05-23T21:45:19.374Z,7.80
2023-05-23T21:47:49.996Z,8.03
2023-05-23T21:50:23.454Z,7.90
2023-05-23T21:52:54.322Z,7.47
2023-05-23T21:55:24.956Z,7.57
2023-05-23T21:57:55.780Z,9.63
2023-05-23T22:00:27.542Z,7.00
2023-05-23T22:02:58.212Z,8.77
2023-05-23T22:05:31.829Z,6.93
2023-05-23T22:08:02.352Z,8.27
2023-05-23T22:10:35.014Z,5.57
2023-05-23T22:13:06.098Z,7.60
2023-05-23T22:15:37.024Z,7.20
2023-05-23T22:18:08.035Z,6.93
2023-05-23T22:20:41.381Z,9.33
2023-05-23T22:23:16.975Z,8.77
2023-05-23T22:25:48.273Z,7.37
2023-05-23T22:28:18.921Z,9.80
2023-05-23T22:30:49.612Z,7.70
2023-05-23T22:33:20.398Z,8.80
2023-05-23T22:35:53.725Z,8.53
2023-05-23T22:38:24.376Z,9.27
2023-05-23T22:40:54.965Z,7.10
2023-05-23T22:43:25.784Z,9.10
2023-05-23T22:45:56.363Z,7.60
2023-05-23T22:48:28.431Z,8.80
2023-05-23T22:51:02.992Z,8.10
2023-05-23T22:53:33.890Z,12.90
2023-05-23T22:56:04.568Z,9.17
2023-05-23T22:58:35.148Z,8.63
2023-05-23T23:01:05.852Z,8.20
2023-05-23T23:03:36.568Z,8.67
2023-05-23T23:06:10.191Z,9.30
2023-05-23T23:08:40.967Z,8.53
2023-05-23T23:11:11.562Z,9.50
2023-05-23T23:13:42.193Z,7.83
2023-05-23T23:16:13.369Z,7.77
2023-05-23T23:18:44.098Z,8.47
2023-05-23T23:21:17.400Z,8.33
2023-05-23T23:23:48.083Z,9.87
2023-05-23T23:26:18.745Z,6.87
2023-05-23T23:28:49.441Z,12.97
2023-05-23T23:31:20.133Z,8.23
2023-05-23T23:33:50.818Z,8.93
2023-05-23T23:36:24.358Z,7.90
2023-05-23T23:38:54.952Z,11.93
2023-05-23T23:41:27.040Z,8.00
2023-05-23T23:43:57.609Z,7.33
2023-05-23T23:46:28.273Z,7.17
2023-05-23T23:48:58.869Z,10.23
2023-05-23T23:51:32.821Z,7.27
2023-05-23T23:54:03.640Z,7.43
2023-05-23T23:56:34.198Z,9.20
2023-05-23T23:59:04.894Z,7.27
